Time;durP1;ratioP1;P1;durP2;ratioP2;P2;SDS_P1;SDS_P2;PMS_P1;PMS_P2;Temp;Humidity;BMP_temperature;BMP_pressure;BME280_temperature;BME280_humidity;BME280_pressure;Samples;Min_cycle;Max_cycle;Signal;HPM_P1;HPM_P2
2021/12/23 00:01:42;;;;;;;35.75;24.13;;;;;;;0.28;81.28;99398.75;4959281;28;20034;-60
2021/12/23 00:04:12;;;;;;;38.95;24.63;;;;;;;0.31;82.17;99382.44;4971210;28;20236;-60
2021/12/23 00:06:38;;;;;;;36.90;24.00;;;;;;;-0.03;82.17;99330.91;4967120;28;20045;-60
2021/12/23 00:09:05;;;;;;;38.97;24.55;;;;;;;0.26;81.67;99379.25;4957670;28;20061;-60
2021/12/23 00:11:31;;;;;;;39.72;23.77;;;;;;;0.23;81.90;99381.94;4956168;28;20038;-60
2021/12/23 00:14:05;;;;;;;36.05;24.65;;;;;;;-0.06;82.58;99314.84;4957974;28;20031;-60
2021/12/23 00:19:36;;;;;;;36.85;24.00;;;;;;;0.12;82.51;99362.72;4969874;28;20498;-60
2021/12/23 00:24:47;;;;;;;37.13;23.55;;;;;;;0.22;82.00;99354.69;4957190;28;20089;-60
2021/12/23 00:27:14;;;;;;;38.65;23.77;;;;;;;-0.26;82.53;99290.91;4972514;28;20053;-60
2021/12/23 00:29:40;;;;;;;39.95;24.27;;;;;;;0.11;82.70;99352.53;4935892;28;20027;-60
2021/12/23 00:32:08;;;;;;;35.63;23.17;;;;;;;0.20;82.77;99352.16;4959494;28;20439;-60
2021/12/23 00:34:38;;;;;;;35.33;23.15;;;;;;;0.11;82.55;99349.97;4955418;28;20031;-60
2021/12/23 00:37:06;;;;;;;37.55;23.83;;;;;;;0.05;82.79;99337.44;4953768;28;20031;-60
2021/12/23 00:39:31;;;;;;;38.33;25.10;;;;;;;0.09;82.87;99355.19;4957935;28;20033;-61
2021/12/23 00:42:05;;;;;;;40.47;24.70;;;;;;;0.04;82.48;99353.66;4973378;28;20030;-60
2021/12/23 00:44:31;;;;;;;40.92;25.98;;;;;;;0.12;82.28;99357.59;4972373;28;20478;-60
2021/12/23 00:46:57;;;;;;;38.47;23.65;;;;;;;0.15;82.21;99354.09;4972200;28;20110;-60
2021/12/23 00:49:22;;;;;;;37.58;24.20;;;;;;;0.22;82.31;99350.41;4958209;28;20378;-60
2021/12/23 00:51:48;;;;;;;35.22;23.35;;;;;;;-0.17;82.54;99294.00;4952657;28;20033;-60
2021/12/23 00:54:13;;;;;;;35.25;22.70;;;;;;;0.04;82.23;99340.88;4955856;28;20474;-60
2021/12/23 00:56:38;;;;;;;39.95;23.90;;;;;;;0.04;82.67;99358.78;4946783;28;20053;-60
2021/12/23 00:59:07;;;;;;;36.58;23.85;;;;;;;0.03;82.94;99345.19;4962174;28;20034;-61
2021/12/23 01:01:33;;;;;;;39.10;24.65;;;;;;;0.02;82.62;99330.75;4956893;28;20077;-60
2021/12/23 01:03:58;;;;;;;33.05;22.13;;;;;;;-0.05;82.99;99332.69;4944377;28;20126;-60
2021/12/23 01:06:24;;;;;;;35.35;22.55;;;;;;;-0.09;83.54;99330.31;4925766;28;20458;-60
2021/12/23 01:08:49;;;;;;;36.67;22.48;;;;;;;0.06;83.26;99332.28;4951703;28;20022;-61
2021/12/23 01:11:15;;;;;;;37.15;23.48;;;;;;;0.04;83.81;99323.84;4956087;28;20049;-60
2021/12/23 01:13:47;;;;;;;36.65;23.55;;;;;;;0.07;83.47;99333.09;4952330;28;20434;-61
2021/12/23 01:16:24;;;;;;;35.00;21.77;;;;;;;-0.03;83.25;99327.53;4963240;28;20045;-60
2021/12/23 01:18:54;;;;;;;36.85;22.02;;;;;;;-0.05;83.28;99329.31;4952334;28;20026;-60
2021/12/23 01:21:19;;;;;;;35.72;22.15;;;;;;;0.06;82.99;99339.94;4957252;28;20066;-60
2021/12/23 01:23:57;;;;;;;35.28;22.83;;;;;;;-0.01;83.17;99333.41;4951269;28;20502;-60
2021/12/23 01:26:24;;;;;;;35.55;21.70;;;;;;;0.00;83.28;99317.19;4952173;28;20141;-60
2021/12/23 01:28:57;;;;;;;35.10;22.00;;;;;;;-0.01;83.49;99318.91;4955366;28;20039;-60
2021/12/23 01:31:26;;;;;;;33.75;21.45;;;;;;;0.00;83.73;99329.97;4956697;28;20063;-61
2021/12/23 01:33:52;;;;;;;34.30;21.48;;;;;;;0.00;83.24;99312.06;4968314;28;20030;-60
2021/12/23 01:36:17;;;;;;;32.28;21.17;;;;;;;0.03;83.64;99324.72;4955822;28;20043;-60
2021/12/23 01:38:43;;;;;;;33.03;21.42;;;;;;;-0.01;83.40;99323.19;4952268;28;20035;-60
2021/12/23 01:41:09;;;;;;;33.50;21.05;;;;;;;-0.03;83.55;99330.91;4970988;28;20062;-60
2021/12/23 01:43:34;;;;;;;34.97;21.90;;;;;;;-0.14;84.01;99306.69;4952653;28;20051;-60
2021/12/23 01:46:00;;;;;;;31.60;20.42;;;;;;;-0.55;84.18;99268.19;4939152;28;20035;-60
2021/12/23 01:48:25;;;;;;;33.20;21.15;;;;;;;-0.39;84.86;99312.72;4956909;28;20031;-58
2021/12/23 01:50:51;;;;;;;34.03;21.35;;;;;;;-0.27;84.09;99308.88;4961919;28;20034;-60
2021/12/23 01:53:16;;;;;;;31.90;20.90;;;;;;;-0.30;83.92;99276.59;4960009;28;20609;-60
2021/12/23 01:55:43;;;;;;;32.42;19.90;;;;;;;-0.04;83.20;99326.72;4973150;28;20031;-60
2021/12/23 01:58:11;;;;;;;33.58;19.73;;;;;;;-0.13;83.74;99311.69;4959080;28;20133;-60
2021/12/23 02:00:38;;;;;;;29.48;19.52;;;;;;;-0.39;82.96;99269.28;4956602;28;20050;-60
2021/12/23 02:03:04;;;;;;;33.45;21.48;;;;;;;-0.13;83.97;99328.78;4957684;28;20552;-60
2021/12/23 02:05:30;;;;;;;31.08;20.42;;;;;;;-0.33;84.16;99338.06;4958067;28;20033;-60
2021/12/23 02:07:56;;;;;;;33.38;20.95;;;;;;;-0.69;82.69;99244.03;4958460;28;20580;-60
2021/12/23 02:10:22;;;;;;;32.85;21.80;;;;;;;-0.12;83.43;99327.91;4955844;28;20058;-60
2021/12/23 02:12:48;;;;;;;31.27;20.92;;;;;;;-0.10;83.04;99328.66;4957011;28;20054;-60
2021/12/23 02:15:15;;;;;;;32.38;20.27;;;;;;;-0.44;83.45;99289.06;4946091;28;20023;-60
2021/12/23 02:17:40;;;;;;;30.42;20.17;;;;;;;-0.54;83.07;99282.66;4959731;28;20084;-60
2021/12/23 02:20:11;;;;;;;34.17;22.02;;;;;;;-0.20;82.49;99305.19;4973903;28;20472;-60
2021/12/23 02:22:37;;;;;;;34.45;21.10;;;;;;;-0.10;82.91;99329.47;4957804;28;20019;-60
2021/12/23 02:25:04;;;;;;;31.95;20.98;;;;;;;-0.09;81.85;99320.94;4973524;28;20039;-60
2021/12/23 02:27:30;;;;;;;33.55;20.85;;;;;;;-0.16;82.60;99313.56;4961295;28;20888;-60
2021/12/23 02:29:55;;;;;;;33.03;19.77;;;;;;;-0.68;83.14;99270.38;4937050;28;20468;-61
2021/12/23 02:32:21;;;;;;;31.33;20.10;;;;;;;-0.33;83.70;99301.44;4959920;28;20027;-61
2021/12/23 02:34:47;;;;;;;30.77;20.08;;;;;;;-0.24;82.83;99295.97;4960833;28;20801;-60
2021/12/23 02:37:13;;;;;;;32.50;20.90;;;;;;;-0.32;83.14;99293.72;4961652;28;20042;-60
2021/12/23 02:39:40;;;;;;;31.05;21.17;;;;;;;-0.20;83.19;99297.53;4976486;28;20034;-60
2021/12/23 02:42:05;;;;;;;30.95;19.83;;;;;;;-0.18;82.67;99297.44;4958955;28;20030;-60
2021/12/23 02:44:31;;;;;;;31.08;20.58;;;;;;;-0.20;82.62;99302.63;4959261;28;20492;-60
2021/12/23 02:46:56;;;;;;;32.03;20.83;;;;;;;-0.22;82.60;99305.25;4960587;28;20469;-60
2021/12/23 02:49:22;;;;;;;36.47;19.88;;;;;;;-0.16;82.48;99308.47;4952215;28;20038;-60
2021/12/23 02:51:47;;;;;;;34.88;21.67;;;;;;;-0.20;81.90;99308.56;4977702;28;20027;-61
2021/12/23 02:54:13;;;;;;;32.13;20.70;;;;;;;-0.56;82.75;99253.78;4973706;28;20039;-60
2021/12/23 02:56:38;;;;;;;33.45;21.33;;;;;;;-0.54;82.95;99239.22;4957782;28;20101;-60
2021/12/23 02:59:04;;;;;;;32.65;20.15;;;;;;;-0.22;82.31;99300.13;4961156;28;20030;-61
2021/12/23 03:01:29;;;;;;;31.40;20.30;;;;;;;-0.33;82.31;99296.31;4972997;28;20030;-60
2021/12/23 03:03:55;;;;;;;34.05;21.75;;;;;;;-0.34;82.83;99290.38;4957680;28;20054;-61
2021/12/23 03:06:22;;;;;;;34.75;21.73;;;;;;;-0.22;82.66;99306.94;4973588;28;20039;-60
2021/12/23 03:08:50;;;;;;;32.35;20.45;;;;;;;-0.24;82.92;99301.91;4946074;28;20481;-60
2021/12/23 03:11:20;;;;;;;32.22;20.27;;;;;;;-0.21;82.60;99298.41;4961090;28;20043;-60
2021/12/23 03:13:46;;;;;;;33.22;20.30;;;;;;;-0.23;83.34;99297.63;4969556;28;20686;-61
2021/12/23 03:16:13;;;;;;;31.85;20.52;;;;;;;-0.26;83.73;99288.34;4939025;28;20035;-61
2021/12/23 03:18:38;;;;;;;33.83;20.10;;;;;;;-0.32;83.31;99286.03;4956538;28;20804;-61
2021/12/23 03:21:04;;;;;;;31.92;20.30;;;;;;;-0.63;82.96;99225.09;4954516;28;20039;-60
2021/12/23 03:23:29;;;;;;;31.20;20.42;;;;;;;-0.35;83.51;99280.22;4953760;28;20492;-61
2021/12/23 03:25:55;;;;;;;32.53;19.42;;;;;;;-0.50;83.81;99269.69;4957768;28;20031;-60
2021/12/23 03:28:21;;;;;;;32.08;19.92;;;;;;;-0.35;83.61;99263.16;4958807;28;20039;-60
2021/12/23 03:30:47;;;;;;;32.60;19.70;;;;;;;-0.24;83.06;99285.72;4956803;28;20130;-60
2021/12/23 03:33:13;;;;;;;28.83;19.50;;;;;;;-0.43;83.52;99248.13;4961488;28;20061;-60
2021/12/23 03:35:39;;;;;;;30.50;19.95;;;;;;;-0.33;82.78;99252.88;4967338;28;20475;-61
2021/12/23 03:38:04;;;;;;;29.00;18.95;;;;;;;-0.33;83.55;99258.84;4969455;28;20037;-60
2021/12/23 03:40:30;;;;;;;29.58;20.08;;;;;;;-0.61;83.60;99206.25;4955871;28;20030;-60
2021/12/23 03:42:55;;;;;;;32.38;20.67;;;;;;;-0.34;83.81;99248.66;4959006;28;20031;-61
2021/12/23 03:45:22;;;;;;;33.40;19.60;;;;;;;-0.30;82.95;99253.59;4952629;28;20097;-60
2021/12/23 03:47:48;;;;;;;30.73;18.88;;;;;;;-0.61;83.94;99201.13;4970382;28;20039;-60
2021/12/23 03:50:20;;;;;;;30.83;19.63;;;;;;;-0.28;83.82;99253.53;4954289;28;20046;-60
2021/12/23 03:52:46;;;;;;;32.10;20.48;;;;;;;-0.20;83.93;99256.63;4968687;28;20126;-60
2021/12/23 03:55:12;;;;;;;30.70;20.15;;;;;;;-0.36;84.05;99253.84;4938589;28;20081;-61
2021/12/23 03:57:37;;;;;;;33.20;20.00;;;;;;;-0.40;84.55;99248.00;4952497;28;20023;-60
2021/12/23 04:00:05;;;;;;;31.48;20.70;;;;;;;-0.47;84.57;99226.16;4974120;28;20050;-60
2021/12/23 04:02:31;;;;;;;29.42;19.48;;;;;;;-0.35;84.13;99247.00;4955347;28;20246;-60
2021/12/23 04:04:56;;;;;;;33.85;20.48;;;;;;;-0.30;83.84;99230.59;4952957;28;20035;-60
2021/12/23 04:07:21;;;;;;;30.90;19.58;;;;;;;-0.47;83.68;99223.59;4960882;28;20367;-61
2021/12/23 04:09:47;;;;;;;34.00;19.95;;;;;;;-0.53;84.10;99213.63;4958174;28;20793;-60
2021/12/23 04:12:12;;;;;;;32.13;20.08;;;;;;;-0.22;83.67;99233.69;4942167;28;20054;-60
2021/12/23 04:14:38;;;;;;;31.20;19.55;;;;;;;-0.26;84.55;99242.34;4959616;28;20102;-60
2021/12/23 04:17:03;;;;;;;27.77;19.17;;;;;;;-0.23;84.27;99244.78;4960506;28;20039;-61
2021/12/23 04:19:31;;;;;;;30.42;20.33;;;;;;;-0.18;84.25;99231.84;4954282;28;20042;-60
2021/12/23 04:21:57;;;;;;;32.80;20.50;;;;;;;-0.08;84.41;99239.94;4959253;28;20018;-60
2021/12/23 04:24:23;;;;;;;34.05;20.73;;;;;;;-0.03;84.67;99235.47;4953794;28;20027;-60
2021/12/23 04:26:48;;;;;;;30.30;19.08;;;;;;;-0.08;84.51;99220.31;4956695;28;20441;-60
2021/12/23 04:29:14;;;;;;;31.35;19.70;;;;;;;-0.02;84.32;99222.66;4970346;28;20027;-60
2021/12/23 04:31:39;;;;;;;32.42;18.45;;;;;;;-0.05;83.73;99214.25;4948240;28;20422;-61
2021/12/23 04:34:04;;;;;;;30.70;19.52;;;;;;;0.08;84.31;99225.63;4960250;28;20481;-61
2021/12/23 04:36:30;;;;;;;37.08;20.77;;;;;;;0.05;84.81;99227.50;4959410;28;20073;-60
2021/12/23 04:38:58;;;;;;;29.05;18.80;;;;;;;0.09;84.35;99224.75;4971292;28;20397;-61
2021/12/23 04:41:24;;;;;;;30.50;19.45;;;;;;;0.08;84.18;99225.63;4952392;28;20034;-61
2021/12/23 04:43:49;;;;;;;32.30;21.10;;;;;;;0.07;85.61;99218.84;4970886;28;20038;-60
2021/12/23 04:46:14;;;;;;;32.42;20.33;;;;;;;0.10;85.18;99216.19;4972282;28;20041;-61
2021/12/23 04:48:40;;;;;;;32.67;19.98;;;;;;;0.10;85.01;99207.69;4954463;28;20113;-61
2021/12/23 04:51:06;;;;;;;30.63;19.30;;;;;;;0.09;84.76;99208.56;4957041;28;20122;-61
2021/12/23 04:53:32;;;;;;;28.52;18.98;;;;;;;0.19;84.32;99207.28;4959152;28;20027;-60
2021/12/23 04:55:57;;;;;;;28.33;18.88;;;;;;;0.15;84.61;99186.13;4958987;28;20481;-61
2021/12/23 04:58:23;;;;;;;28.63;19.50;;;;;;;0.18;84.89;99192.84;4951734;28;20428;-60
2021/12/23 05:00:50;;;;;;;28.13;19.63;;;;;;;0.17;85.46;99186.06;4973989;28;20101;-60
2021/12/23 05:03:20;;;;;;;35.03;20.63;;;;;;;0.18;85.22;99195.38;4956842;28;20078;-61
2021/12/23 05:05:45;;;;;;;28.50;18.85;;;;;;;0.17;85.68;99186.06;4951175;28;20034;-60
2021/12/23 05:08:12;;;;;;;28.45;18.88;;;;;;;0.16;85.10;99198.03;4956470;28;20031;-60
2021/12/23 05:10:37;;;;;;;31.25;19.02;;;;;;;-0.05;84.47;99153.72;4971285;28;20504;-60
2021/12/23 05:13:04;;;;;;;30.60;19.65;;;;;;;0.24;85.12;99205.38;4957620;28;20031;-60
2021/12/23 05:15:30;;;;;;;28.02;18.50;;;;;;;0.19;84.93;99189.41;4948525;28;20035;-61
2021/12/23 05:17:55;;;;;;;28.92;19.00;;;;;;;0.23;85.58;99202.88;4953802;28;20438;-60
2021/12/23 05:20:22;;;;;;;29.15;18.83;;;;;;;0.26;86.11;99207.88;4953772;28;20504;-60
2021/12/23 05:22:49;;;;;;;29.27;18.52;;;;;;;0.26;85.61;99215.56;4969389;28;20517;-60
2021/12/23 05:25:16;;;;;;;29.30;19.63;;;;;;;0.37;85.43;99203.13;4955149;28;20548;-61
2021/12/23 05:27:41;;;;;;;30.08;18.95;;;;;;;0.33;85.91;99191.38;4953493;28;20109;-60
2021/12/23 05:30:10;;;;;;;27.83;18.10;;;;;;;0.37;85.95;99192.91;4965778;28;20643;-60
2021/12/23 05:32:35;;;;;;;26.45;18.67;;;;;;;0.03;85.69;99144.91;4947395;28;20046;-60
2021/12/23 05:35:01;;;;;;;27.88;19.17;;;;;;;0.22;85.92;99180.75;4953888;28;20474;-60
2021/12/23 05:37:26;;;;;;;28.13;19.05;;;;;;;0.33;86.01;99199.88;4948232;28;20397;-60
2021/12/23 05:39:52;;;;;;;30.17;19.30;;;;;;;0.38;86.01;99215.00;4957712;28;20027;-60
2021/12/23 05:42:17;;;;;;;29.77;18.88;;;;;;;0.43;86.23;99215.66;4950926;28;20747;-60
2021/12/23 05:44:43;;;;;;;30.35;19.63;;;;;;;0.48;85.55;99202.66;4953029;28;20723;-60
2021/12/23 05:47:08;;;;;;;28.42;18.52;;;;;;;0.42;85.93;99196.09;4968560;28;20098;-60
2021/12/23 05:49:34;;;;;;;28.80;18.15;;;;;;;0.34;86.03;99195.56;4972393;28;20045;-60
2021/12/23 05:51:59;;;;;;;29.48;18.90;;;;;;;0.46;86.10;99200.16;4955770;28;20189;-61
2021/12/23 05:54:25;;;;;;;28.55;18.42;;;;;;;0.51;86.66;99194.84;4958248;28;20061;-60
2021/12/23 05:56:50;;;;;;;29.50;18.45;;;;;;;0.43;86.23;99186.69;4971689;28;20360;-60
2021/12/23 05:59:16;;;;;;;29.08;18.58;;;;;;;0.56;86.35;99195.47;4956900;28;20457;-60
2021/12/23 06:01:41;;;;;;;26.85;18.63;;;;;;;0.63;85.75;99196.88;4955785;28;20070;-60
2021/12/23 06:04:07;;;;;;;28.50;18.27;;;;;;;0.26;86.10;99142.19;4954320;28;20031;-60
2021/12/23 06:06:34;;;;;;;28.70;17.92;;;;;;;0.27;86.80;99148.13;4955903;28;20103;-61
2021/12/23 06:08:59;;;;;;;26.30;17.33;;;;;;;0.63;87.87;99196.03;4968393;28;20027;-61
2021/12/23 06:11:25;;;;;;;29.50;18.52;;;;;;;0.76;87.96;99200.53;4970622;28;20037;-60
2021/12/23 06:13:50;;;;;;;27.80;18.15;;;;;;;0.79;87.52;99191.91;4956186;28;20039;-60
2021/12/23 06:16:15;;;;;;;24.63;17.45;;;;;;;0.41;87.12;99121.97;4956821;28;20532;-60
2021/12/23 06:18:41;;;;;;;27.85;17.15;;;;;;;0.43;86.95;99126.09;4934579;28;20041;-61
2021/12/23 06:21:06;;;;;;;26.20;17.25;;;;;;;0.83;87.11;99182.34;4950681;28;20027;-61
2021/12/23 06:23:32;;;;;;;25.83;17.10;;;;;;;0.15;87.38;99088.94;4951689;28;20043;-60
2021/12/23 06:25:58;;;;;;;27.25;17.08;;;;;;;0.60;88.32;99181.63;4972758;28;20026;-60
2021/12/23 06:28:23;;;;;;;28.13;18.45;;;;;;;0.60;89.45;99194.44;4969352;28;20049;-60
2021/12/23 06:30:49;;;;;;;27.55;17.52;;;;;;;0.65;89.45;99189.94;4953278;28;20381;-60
2021/12/23 06:33:14;;;;;;;28.00;16.05;;;;;;;0.79;89.03;99184.22;4959254;28;20162;-59
2021/12/23 06:35:40;;;;;;;25.48;16.70;;;;;;;0.71;89.07;99176.91;4958442;28;20042;-60
2021/12/23 06:38:08;;;;;;;30.58;16.83;;;;;;;0.67;89.24;99175.34;4965918;28;20034;-60
2021/12/23 06:40:34;;;;;;;25.25;17.42;;;;;;;0.70;89.03;99174.41;4947448;28;20038;-60
2021/12/23 06:43:00;;;;;;;29.02;17.38;;;;;;;0.72;89.66;99181.09;4950116;28;20034;-60
2021/12/23 06:45:25;;;;;;;26.67;17.98;;;;;;;0.62;89.58;99161.09;4946720;28;20405;-60
2021/12/23 06:47:51;;;;;;;25.63;16.55;;;;;;;0.85;89.17;99175.44;4959723;28;20090;-60
2021/12/23 06:50:18;;;;;;;25.63;16.83;;;;;;;0.72;89.13;99175.97;4956597;28;20465;-60
2021/12/23 06:52:44;;;;;;;24.95;15.32;;;;;;;0.57;88.98;99146.78;4974462;28;20027;-61
2021/12/23 06:55:11;;;;;;;26.00;16.88;;;;;;;0.69;89.30;99176.09;4956709;28;20747;-60
2021/12/23 06:57:38;;;;;;;26.58;17.17;;;;;;;0.75;88.75;99175.84;4959480;28;20030;-61
2021/12/23 07:00:08;;;;;;;27.83;16.63;;;;;;;0.45;88.82;99118.34;4957108;28;20290;-61
2021/12/23 07:02:38;;;;;;;26.15;16.30;;;;;;;0.92;87.85;99171.69;4959390;28;20030;-60
2021/12/23 07:05:04;;;;;;;24.45;16.67;;;;;;;0.84;87.46;99158.41;4953155;28;20037;-60
2021/12/23 07:07:40;;;;;;;25.70;15.68;;;;;;;1.03;86.75;99182.28;4970004;28;20495;-60
2021/12/23 07:10:06;;;;;;;25.75;16.48;;;;;;;0.91;86.26;99172.59;4963493;28;20425;-60
2021/12/23 07:12:31;;;;;;;23.13;14.65;;;;;;;0.88;86.10;99181.25;4949774;28;20093;-60
2021/12/23 07:14:56;;;;;;;23.75;14.98;;;;;;;0.87;86.25;99187.25;4939785;28;20464;-58
2021/12/23 07:17:22;;;;;;;27.33;16.80;;;;;;;0.48;85.76;99115.66;4975607;28;20023;-60
2021/12/23 07:19:47;;;;;;;23.60;15.23;;;;;;;0.80;86.01;99183.31;4956733;28;20030;-60
2021/12/23 07:22:13;;;;;;;23.08;15.13;;;;;;;0.65;85.95;99148.16;4963516;28;20065;-60
2021/12/23 07:24:41;;;;;;;23.38;15.63;;;;;;;0.88;85.60;99182.97;4968874;28;20631;-60
2021/12/23 07:27:07;;;;;;;23.13;15.07;;;;;;;0.89;85.99;99192.31;4967244;28;20046;-60
2021/12/23 07:29:33;;;;;;;26.10;16.45;;;;;;;0.86;86.50;99184.75;4951768;28;20038;-60
2021/12/23 07:31:59;;;;;;;23.17;15.15;;;;;;;0.90;86.41;99186.31;4957973;28;20614;-60
2021/12/23 07:34:25;;;;;;;22.60;15.30;;;;;;;0.62;86.41;99130.38;4959239;28;20677;-60
2021/12/23 07:36:50;;;;;;;23.67;15.38;;;;;;;0.90;86.21;99176.88;4958112;28;20058;-60
2021/12/23 07:39:16;;;;;;;21.15;13.75;;;;;;;0.95;85.75;99176.69;4969676;28;20438;-60
2021/12/23 07:41:41;;;;;;;22.70;14.73;;;;;;;0.95;85.93;99182.63;4974930;28;20031;-60
2021/12/23 07:44:09;;;;;;;26.08;16.02;;;;;;;0.84;86.18;99179.72;4956171;28;20046;-60
2021/12/23 07:46:36;;;;;;;24.58;16.10;;;;;;;0.56;86.17;99129.75;4952418;28;20031;-60
2021/12/23 07:49:02;;;;;;;22.83;14.40;;;;;;;0.73;85.35;99138.41;4973870;28;20873;-61
2021/12/23 07:51:28;;;;;;;21.45;13.98;;;;;;;0.91;85.70;99191.34;4953799;28;20497;-60
2021/12/23 07:53:54;;;;;;;24.20;15.00;;;;;;;0.67;85.31;99128.44;4955678;28;20069;-60
2021/12/23 07:56:20;;;;;;;20.73;13.95;;;;;;;0.92;85.56;99158.88;4957286;28;20035;-60
2021/12/23 07:58:46;;;;;;;25.15;15.40;;;;;;;0.98;85.28;99178.25;4952151;28;20636;-60
2021/12/23 08:01:11;;;;;;;22.92;14.52;;;;;;;0.87;85.50;99153.16;4973856;28;20038;-60
2021/12/23 08:03:37;;;;;;;22.67;14.48;;;;;;;0.54;85.24;99107.69;4956007;28;20685;-60
2021/12/23 08:06:04;;;;;;;22.77;14.85;;;;;;;0.94;85.18;99170.72;4957294;28;20164;-60
2021/12/23 08:08:30;;;;;;;22.52;14.30;;;;;;;0.95;84.67;99161.31;4956399;28;20894;-60
2021/12/23 08:10:55;;;;;;;22.77;14.13;;;;;;;0.89;85.13;99157.28;4956932;28;20062;-60
2021/12/23 08:13:21;;;;;;;20.45;13.32;;;;;;;0.63;84.93;99114.13;4946443;28;20030;-61
2021/12/23 08:15:46;;;;;;;21.45;14.00;;;;;;;0.94;84.18;99168.16;4957442;28;20042;-60
2021/12/23 08:18:12;;;;;;;23.20;13.68;;;;;;;1.01;83.63;99173.00;4954934;28;20053;-60
2021/12/23 08:20:37;;;;;;;19.83;12.82;;;;;;;0.98;84.07;99180.81;4957755;28;20035;-60
2021/12/23 08:23:03;;;;;;;20.52;13.43;;;;;;;0.99;83.95;99174.81;4966929;28;20169;-60
2021/12/23 08:25:30;;;;;;;22.08;13.20;;;;;;;1.02;83.22;99172.09;4951842;28;20145;-60
2021/12/23 08:27:55;;;;;;;14.98;9.18;;;;;;;1.03;83.36;99163.53;4971982;28;20031;-60
2021/12/23 08:30:21;;;;;;;21.05;13.23;;;;;;;1.03;83.41;99173.75;4955357;28;20077;-60
2021/12/23 08:32:48;;;;;;;20.05;11.63;;;;;;;1.06;82.91;99171.91;4955281;28;20050;-61
2021/12/23 08:35:14;;;;;;;21.15;12.98;;;;;;;0.96;82.64;99152.72;4957088;28;20532;-61
2021/12/23 08:37:44;;;;;;;21.02;13.23;;;;;;;0.70;82.15;99111.22;4956434;28;20114;-60
2021/12/23 08:40:10;;;;;;;19.23;11.68;;;;;;;1.11;81.99;99169.09;4957647;28;20134;-60
2021/12/23 08:42:36;;;;;;;20.98;12.68;;;;;;;0.62;81.80;99100.53;4970991;28;20413;-61
2021/12/23 08:45:04;;;;;;;18.60;13.27;;;;;;;0.73;81.57;99105.13;4935363;28;20042;-60
2021/12/23 08:47:30;;;;;;;19.48;12.90;;;;;;;1.17;81.25;99161.16;4959446;28;20240;-60
2021/12/23 08:49:56;;;;;;;21.00;12.55;;;;;;;0.85;81.17;99121.66;4945139;28;20034;-61
2021/12/23 08:52:21;;;;;;;15.50;10.73;;;;;;;1.18;81.60;99164.53;4955491;28;20596;-60
2021/12/23 08:54:47;;;;;;;18.92;12.57;;;;;;;1.14;82.10;99159.53;4954536;28;20478;-60
2021/12/23 08:57:12;;;;;;;19.50;12.55;;;;;;;1.25;81.35;99156.47;4943002;28;20034;-60
2021/12/23 08:59:38;;;;;;;19.52;13.30;;;;;;;1.19;81.28;99161.06;4954136;28;20038;-60
2021/12/23 09:02:03;;;;;;;21.25;13.73;;;;;;;1.21;80.85;99156.72;4973481;28;20030;-60
2021/12/23 09:04:29;;;;;;;18.77;12.02;;;;;;;0.85;80.84;99099.44;4953191;28;20035;-61
2021/12/23 09:06:54;;;;;;;19.70;11.32;;;;;;;1.23;80.35;99140.34;4959271;28;20095;-60
2021/12/23 09:09:20;;;;;;;17.75;11.88;;;;;;;1.27;79.86;99141.03;4956034;28;20496;-60
2021/12/23 09:11:46;;;;;;;19.08;12.32;;;;;;;1.27;79.63;99141.84;4969744;28;20082;-60
2021/12/23 09:14:11;;;;;;;19.17;11.68;;;;;;;1.30;79.67;99146.84;4953380;28;20086;-60
2021/12/23 09:16:38;;;;;;;17.77;10.90;;;;;;;1.27;80.09;99144.44;4960723;28;20466;-60
2021/12/23 09:19:04;;;;;;;20.63;12.85;;;;;;;1.31;80.53;99151.09;4953471;28;20572;-60
2021/12/23 09:21:29;;;;;;;20.25;13.65;;;;;;;1.26;80.66;99132.53;4954448;28;20043;-60
2021/12/23 09:23:55;;;;;;;22.23;13.40;;;;;;;1.18;80.37;99120.97;4973107;28;20023;-60
2021/12/23 09:26:21;;;;;;;19.75;12.30;;;;;;;1.26;79.97;99135.09;4973023;28;20495;-60
2021/12/23 09:29:09;;;;;;;20.38;13.30;;;;;;;1.23;79.43;99126.72;4955481;28;20960;-60
2021/12/23 09:34:18;;;;;;;19.67;12.55;;;;;;;1.29;79.24;99117.00;4953342;28;20085;-60
2021/12/23 09:36:44;;;;;;;17.00;9.15;;;;;;;1.36;79.19;99125.22;4957634;28;20031;-60
2021/12/23 09:39:11;;;;;;;19.80;12.88;;;;;;;0.96;79.34;99074.16;4954555;28;20051;-60
2021/12/23 09:41:42;;;;;;;20.55;12.68;;;;;;;0.92;79.39;99054.72;4956949;28;20031;-60
2021/12/23 09:44:09;;;;;;;20.17;12.75;;;;;;;1.17;79.84;99080.88;4955088;28;20026;-60
2021/12/23 09:46:37;;;;;;;17.40;12.50;;;;;;;1.30;79.90;99099.91;4959054;28;20121;-60
2021/12/23 09:49:04;;;;;;;20.55;13.75;;;;;;;1.28;79.96;99092.28;4972089;28;20081;-60
2021/12/23 09:51:32;;;;;;;22.33;15.05;;;;;;;1.32;79.43;99098.91;4964292;28;20391;-60
2021/12/23 09:54:01;;;;;;;22.77;14.60;;;;;;;1.04;79.78;99047.34;4936643;28;20030;-60
2021/12/23 09:56:27;;;;;;;20.98;14.50;;;;;;;1.47;78.98;99096.50;4955305;28;20039;-60
2021/12/23 09:58:56;;;;;;;23.90;15.13;;;;;;;1.50;79.28;99101.50;4950209;28;20490;-61
2021/12/23 10:01:21;;;;;;;20.92;13.20;;;;;;;1.49;79.17;99081.88;4933774;28;20085;-60
2021/12/23 10:03:47;;;;;;;23.52;14.82;;;;;;;1.56;78.79;99092.69;4969494;28;20031;-61
2021/12/23 10:06:12;;;;;;;22.83;14.65;;;;;;;1.58;78.68;99093.44;4954538;28;20026;-61
2021/12/23 10:08:39;;;;;;;23.13;14.30;;;;;;;1.68;78.67;99104.88;4973247;28;20480;-60
2021/12/23 10:38:24;;;;;;;21.08;12.82;;;;;;;2.33;76.04;99102.41;4956642;28;20066;-61
2021/12/23 10:40:52;;;;;;;18.25;12.65;;;;;;;2.42;76.61;99099.34;4976869;28;20027;-60
2021/12/23 10:43:27;;;;;;;19.42;12.63;;;;;;;2.60;74.33;99094.97;4960769;28;20481;-60
2021/12/23 10:45:57;;;;;;;17.92;11.70;;;;;;;2.60;73.70;99096.72;4974141;28;20027;-61
2021/12/23 10:48:25;;;;;;;16.63;11.35;;;;;;;2.51;72.34;99062.09;4974937;28;20061;-60
2021/12/23 10:50:58;;;;;;;17.33;11.43;;;;;;;2.86;72.98;99088.41;4960490;28;20031;-60
2021/12/23 10:59:12;;;;;;;18.33;11.90;;;;;;;2.92;71.91;99068.44;4947942;28;20061;-61
2021/12/23 11:02:14;;;;;;;19.00;12.18;;;;;;;2.97;71.79;99069.84;4957830;28;20042;-60
2021/12/23 11:05:01;;;;;;;18.05;12.00;;;;;;;2.59;71.44;99000.91;4957722;28;20498;-61
2021/12/23 11:08:07;;;;;;;16.75;11.48;;;;;;;2.99;72.83;99050.03;4954070;28;20027;-60
2021/12/23 11:27:27;;;;;;;19.05;11.63;;;;;;;2.90;71.45;99040.28;4961812;28;20051;-61
2021/12/23 11:37:40;;;;;;;15.65;10.63;;;;;;;3.29;68.42;99002.16;4959831;28;20112;-61
2021/12/23 11:40:24;;;;;;;18.45;10.90;;;;;;;3.27;68.48;98997.09;4961821;28;20034;-60
2021/12/23 11:43:13;;;;;;;16.90;10.95;;;;;;;3.35;67.66;98994.06;4960487;28;20031;-61
2021/12/23 11:45:38;;;;;;;18.63;10.68;;;;;;;3.35;67.54;98987.16;4951707;28;20038;-61
2021/12/23 11:48:07;;;;;;;15.60;9.63;;;;;;;3.40;67.79;98987.75;4973233;28;20031;-61
2021/12/23 11:50:41;;;;;;;16.63;10.93;;;;;;;3.30;68.72;98972.94;4953882;28;20039;-60
2021/12/23 11:53:11;;;;;;;15.55;10.23;;;;;;;3.13;67.94;98936.22;4955883;28;20060;-60
2021/12/23 11:55:37;;;;;;;15.70;10.57;;;;;;;3.37;69.39;98967.34;4963194;28;20108;-60
2021/12/23 11:58:02;;;;;;;16.17;10.27;;;;;;;3.44;69.34;98966.06;4951126;28;20030;-60
2021/12/23 12:00:42;;;;;;;17.02;10.70;;;;;;;3.39;69.06;98972.41;4954252;28;20031;-60
2021/12/23 12:03:08;;;;;;;16.17;10.60;;;;;;;3.38;67.86;98971.56;4952184;28;20031;-61
2021/12/23 12:05:35;;;;;;;15.52;9.75;;;;;;;3.18;67.98;98949.63;4955451;28;20030;-60
2021/12/23 12:08:23;;;;;;;15.43;9.80;;;;;;;3.25;68.95;98966.34;4952346;28;20093;-60
2021/12/23 12:10:49;;;;;;;16.70;10.57;;;;;;;3.30;69.50;98962.66;4951665;28;20035;-61
2021/12/23 12:13:17;;;;;;;14.85;10.35;;;;;;;3.35;69.87;98961.47;4959310;28;20038;-61
2021/12/23 12:15:49;;;;;;;17.88;10.95;;;;;;;3.44;69.03;98963.50;4932576;28;20035;-60
2021/12/23 12:18:21;;;;;;;17.05;11.02;;;;;;;3.49;69.58;98952.09;4935510;28;20483;-61
2021/12/23 12:20:52;;;;;;;17.00;11.23;;;;;;;3.51;68.29;98965.72;4946300;28;20070;-61
2021/12/23 12:23:22;;;;;;;16.33;10.18;;;;;;;3.53;67.97;98962.13;4956173;28;20035;-60
2021/12/23 12:25:53;;;;;;;17.13;10.55;;;;;;;3.65;67.54;98951.13;4952868;28;20081;-61
2021/12/23 12:28:23;;;;;;;16.10;10.57;;;;;;;3.82;68.04;98954.41;4959631;28;20088;-60